sensor_id;sensor_type;location;lat;lon;timestamp;temperature;humidity
21163;DHT22;10739;52.198;20.908;2024-01-15T00:01:44;0.70;99.90
21163;DHT22;10739;52.198;20.908;2024-01-15T00:04:12;0.70;99.90
21163;DHT22;10739;52.198;20.908;2024-01-15T00:06:54;0.60;99.90
21163;DHT22;10739;52.198;20.908;2024-01-15T00:09:20;0.70;99.90
21163;DHT22;10739;52.198;20.908;2024-01-15T00:11:46;0.60;99.90
21163;DHT22;10739;52.198;20.908;2024-01-15T00:14:13;0.60;99.90
21163;DHT22;10739;52.198;20.908;2024-01-15T00:16:40;0.60;99.90
21163;DHT22;10739;52.198;20.908;2024-01-15T00:19:07;0.60;99.90
21163;DHT22;10739;52.198;20.908;2024-01-15T00:21:33;0.60;99.90
21163;DHT22;10739;52.198;20.908;2024-01-15T00:24:00;0.60;99.90
21163;DHT22;10739;52.198;20.908;2024-01-15T00:26:26;0.60;99.90
21163;DHT22;10739;52.198;20.908;2024-01-15T00:28:53;0.60;99.90
21163;DHT22;10739;52.198;20.908;2024-01-15T00:31:19;0.60;99.90
21163;DHT22;10739;52.198;20.908;2024-01-15T00:33:45;0.60;99.90
21163;DHT22;10739;52.198;20.908;2024-01-15T00:36:12;0.60;99.90
21163;DHT22;10739;52.198;20.908;2024-01-15T00:38:40;0.60;99.90
21163;DHT22;10739;52.198;20.908;2024-01-15T00:41:06;0.70;99.90
21163;DHT22;10739;52.198;20.908;2024-01-15T00:43:33;0.60;99.90
21163;DHT22;10739;52.198;20.908;2024-01-15T00:46:02;0.60;99.90
21163;DHT22;10739;52.198;20.908;2024-01-15T00:48:29;0.60;99.90
21163;DHT22;10739;52.198;20.908;2024-01-15T00:50:55;0.60;99.90
21163;DHT22;10739;52.198;20.908;2024-01-15T00:53:21;0.50;99.90
21163;DHT22;10739;52.198;20.908;2024-01-15T00:55:51;0.40;99.90
21163;DHT22;10739;52.198;20.908;2024-01-15T00:58:18;0.40;99.90
21163;DHT22;10739;52.198;20.908;2024-01-15T01:00:44;0.30;99.90
21163;DHT22;10739;52.198;20.908;2024-01-15T01:03:10;0.30;99.90
21163;DHT22;10739;52.198;20.908;2024-01-15T01:05:37;0.30;99.90
21163;DHT22;10739;52.198;20.908;2024-01-15T01:08:04;0.20;99.90
21163;DHT22;10739;52.198;20.908;2024-01-15T01:10:31;0.20;99.90
21163;DHT22;10739;52.198;20.908;2024-01-15T01:12:57;0.20;99.90
21163;DHT22;10739;52.198;20.908;2024-01-15T01:15:23;0.30;99.90
21163;DHT22;10739;52.198;20.908;2024-01-15T01:17:50;0.30;99.90
21163;DHT22;10739;52.198;20.908;2024-01-15T01:20:16;0.20;99.90
21163;DHT22;10739;52.198;20.908;2024-01-15T01:22:43;0.20;99.90
21163;DHT22;10739;52.198;20.908;2024-01-15T01:25:09;0.20;99.90
21163;DHT22;10739;52.198;20.908;2024-01-15T01:27:35;0.20;99.90
21163;DHT22;10739;52.198;20.908;2024-01-15T01:30:02;0.30;99.90
21163;DHT22;10739;52.198;20.908;2024-01-15T01:32:29;0.30;99.90
21163;DHT22;10739;52.198;20.908;2024-01-15T01:34:55;0.30;99.90
21163;DHT22;10739;52.198;20.908;2024-01-15T01:37:21;0.30;99.90
21163;DHT22;10739;52.198;20.908;2024-01-15T01:39:48;0.30;99.90
21163;DHT22;10739;52.198;20.908;2024-01-15T01:42:14;0.30;99.90
21163;DHT22;10739;52.198;20.908;2024-01-15T01:44:41;0.30;99.90
21163;DHT22;10739;52.198;20.908;2024-01-15T01:47:07;0.40;99.90
21163;DHT22;10739;52.198;20.908;2024-01-15T01:49:34;0.40;99.90
21163;DHT22;10739;52.198;20.908;2024-01-15T01:52:05;0.40;99.90
21163;DHT22;10739;52.198;20.908;2024-01-15T01:54:33;0.40;99.90
21163;DHT22;10739;52.198;20.908;2024-01-15T01:57:02;0.40;99.90
21163;DHT22;10739;52.198;20.908;2024-01-15T01:59:30;0.40;99.90
21163;DHT22;10739;52.198;20.908;2024-01-15T02:02:00;0.40;99.90
21163;DHT22;10739;52.198;20.908;2024-01-15T02:04:30;0.40;99.90
21163;DHT22;10739;52.198;20.908;2024-01-15T02:06:58;0.40;99.90
21163;DHT22;10739;52.198;20.908;2024-01-15T02:09:25;0.40;99.90
21163;DHT22;10739;52.198;20.908;2024-01-15T02:11:51;0.40;99.90
21163;DHT22;10739;52.198;20.908;2024-01-15T02:14:18;0.50;99.90
21163;DHT22;10739;52.198;20.908;2024-01-15T02:16:44;0.40;99.90
21163;DHT22;10739;52.198;20.908;2024-01-15T02:19:18;0.40;99.90
21163;DHT22;10739;52.198;20.908;2024-01-15T02:21:44;0.40;99.90
21163;DHT22;10739;52.198;20.908;2024-01-15T02:24:11;0.40;99.90
21163;DHT22;10739;52.198;20.908;2024-01-15T02:26:38;0.40;99.90
21163;DHT22;10739;52.198;20.908;2024-01-15T02:29:07;0.50;99.90
21163;DHT22;10739;52.198;20.908;2024-01-15T02:31:38;0.50;99.90
21163;DHT22;10739;52.198;20.908;2024-01-15T02:34:05;0.40;99.90
21163;DHT22;10739;52.198;20.908;2024-01-15T02:36:31;0.40;99.90
21163;DHT22;10739;52.198;20.908;2024-01-15T02:38:58;0.40;99.90
21163;DHT22;10739;52.198;20.908;2024-01-15T02:41:24;0.50;99.90
21163;DHT22;10739;52.198;20.908;2024-01-15T02:43:50;0.50;99.90
21163;DHT22;10739;52.198;20.908;2024-01-15T02:46:16;0.50;99.90
21163;DHT22;10739;52.198;20.908;2024-01-15T02:48:43;0.50;99.90
21163;DHT22;10739;52.198;20.908;2024-01-15T02:51:09;0.50;99.90
21163;DHT22;10739;52.198;20.908;2024-01-15T02:53:36;0.50;99.90
21163;DHT22;10739;52.198;20.908;2024-01-15T02:56:03;0.40;99.90
21163;DHT22;10739;52.198;20.908;2024-01-15T02:58:30;0.40;99.90
21163;DHT22;10739;52.198;20.908;2024-01-15T03:00:56;0.40;99.90
21163;DHT22;10739;52.198;20.908;2024-01-15T03:03:23;0.40;99.90
21163;DHT22;10739;52.198;20.908;2024-01-15T03:05:49;0.40;99.90
21163;DHT22;10739;52.198;20.908;2024-01-15T03:08:16;0.40;99.90
21163;DHT22;10739;52.198;20.908;2024-01-15T03:10:43;0.40;99.90
21163;DHT22;10739;52.198;20.908;2024-01-15T03:13:09;0.40;99.90
21163;DHT22;10739;52.198;20.908;2024-01-15T03:15:35;0.30;99.90
21163;DHT22;10739;52.198;20.908;2024-01-15T03:18:02;0.20;99.90
21163;DHT22;10739;52.198;20.908;2024-01-15T03:20:28;0.10;99.90
21163;DHT22;10739;52.198;20.908;2024-01-15T03:22:54;0.00;99.90
21163;DHT22;10739;52.198;20.908;2024-01-15T03:25:20;0.00;99.90
21163;DHT22;10739;52.198;20.908;2024-01-15T03:27:47;0.00;99.90
21163;DHT22;10739;52.198;20.908;2024-01-15T03:30:13;0.00;99.90
21163;DHT22;10739;52.198;20.908;2024-01-15T03:32:40;0.00;99.90
21163;DHT22;10739;52.198;20.908;2024-01-15T03:35:06;0.00;99.90
21163;DHT22;10739;52.198;20.908;2024-01-15T03:37:33;0.00;99.90
21163;DHT22;10739;52.198;20.908;2024-01-15T03:39:59;0.10;99.90
21163;DHT22;10739;52.198;20.908;2024-01-15T03:42:26;0.10;99.90
21163;DHT22;10739;52.198;20.908;2024-01-15T03:44:52;0.10;99.90
21163;DHT22;10739;52.198;20.908;2024-01-15T03:47:19;0.20;99.90
21163;DHT22;10739;52.198;20.908;2024-01-15T03:49:45;0.10;99.90
21163;DHT22;10739;52.198;20.908;2024-01-15T03:52:12;0.20;99.90
21163;DHT22;10739;52.198;20.908;2024-01-15T03:54:38;0.20;99.90
21163;DHT22;10739;52.198;20.908;2024-01-15T03:57:04;0.20;99.90
21163;DHT22;10739;52.198;20.908;2024-01-15T03:59:31;0.20;99.90
21163;DHT22;10739;52.198;20.908;2024-01-15T04:01:57;0.20;99.90
21163;DHT22;10739;52.198;20.908;2024-01-15T04:04:23;0.20;99.90
21163;DHT22;10739;52.198;20.908;2024-01-15T04:06:49;0.20;99.90
21163;DHT22;10739;52.198;20.908;2024-01-15T04:09:16;0.20;99.90
21163;DHT22;10739;52.198;20.908;2024-01-15T04:11:42;0.20;99.90
21163;DHT22;10739;52.198;20.908;2024-01-15T04:14:09;0.20;99.90
21163;DHT22;10739;52.198;20.908;2024-01-15T04:16:36;0.20;99.90
21163;DHT22;10739;52.198;20.908;2024-01-15T04:19:03;0.20;99.90
21163;DHT22;10739;52.198;20.908;2024-01-15T04:21:29;0.20;99.90
21163;DHT22;10739;52.198;20.908;2024-01-15T04:23:56;0.30;99.90
21163;DHT22;10739;52.198;20.908;2024-01-15T04:26:22;0.30;99.90
21163;DHT22;10739;52.198;20.908;2024-01-15T04:28:48;0.30;99.90
21163;DHT22;10739;52.198;20.908;2024-01-15T04:31:23;0.30;99.90
21163;DHT22;10739;52.198;20.908;2024-01-15T04:33:50;0.30;99.90
21163;DHT22;10739;52.198;20.908;2024-01-15T04:36:17;0.40;99.90
21163;DHT22;10739;52.198;20.908;2024-01-15T04:38:43;0.40;99.90
21163;DHT22;10739;52.198;20.908;2024-01-15T04:41:12;0.40;99.90
21163;DHT22;10739;52.198;20.908;2024-01-15T04:43:39;0.40;99.90
21163;DHT22;10739;52.198;20.908;2024-01-15T04:46:06;0.40;99.90
21163;DHT22;10739;52.198;20.908;2024-01-15T04:48:33;0.40;99.90
21163;DHT22;10739;52.198;20.908;2024-01-15T04:51:00;0.40;99.90
21163;DHT22;10739;52.198;20.908;2024-01-15T04:53:26;0.40;99.90
21163;DHT22;10739;52.198;20.908;2024-01-15T04:55:52;0.40;99.90
21163;DHT22;10739;52.198;20.908;2024-01-15T04:58:18;0.40;99.90
21163;DHT22;10739;52.198;20.908;2024-01-15T05:00:45;0.40;99.90
21163;DHT22;10739;52.198;20.908;2024-01-15T05:03:11;0.40;99.90
21163;DHT22;10739;52.198;20.908;2024-01-15T05:05:37;0.40;99.90
21163;DHT22;10739;52.198;20.908;2024-01-15T05:08:07;0.40;99.90
21163;DHT22;10739;52.198;20.908;2024-01-15T05:10:33;0.40;99.90
21163;DHT22;10739;52.198;20.908;2024-01-15T05:12:59;0.40;99.90
21163;DHT22;10739;52.198;20.908;2024-01-15T05:15:25;0.50;99.90
21163;DHT22;10739;52.198;20.908;2024-01-15T05:17:52;0.40;99.90
21163;DHT22;10739;52.198;20.908;2024-01-15T05:20:18;0.40;99.90
21163;DHT22;10739;52.198;20.908;2024-01-15T05:22:44;1.80;99.90
21163;DHT22;10739;52.198;20.908;2024-01-15T05:25:11;0.40;99.90
21163;DHT22;10739;52.198;20.908;2024-01-15T05:27:37;0.40;99.90
21163;DHT22;10739;52.198;20.908;2024-01-15T05:30:04;0.40;99.90
21163;DHT22;10739;52.198;20.908;2024-01-15T05:32:33;0.40;99.90
21163;DHT22;10739;52.198;20.908;2024-01-15T05:35:00;0.40;99.90
21163;DHT22;10739;52.198;20.908;2024-01-15T05:37:27;0.40;99.90
21163;DHT22;10739;52.198;20.908;2024-01-15T05:39:53;0.40;99.90
21163;DHT22;10739;52.198;20.908;2024-01-15T05:42:19;0.40;99.90
21163;DHT22;10739;52.198;20.908;2024-01-15T05:44:45;0.40;99.90
21163;DHT22;10739;52.198;20.908;2024-01-15T05:47:12;0.40;99.90
21163;DHT22;10739;52.198;20.908;2024-01-15T05:49:38;0.40;99.90
21163;DHT22;10739;52.198;20.908;2024-01-15T05:52:05;0.40;99.90
21163;DHT22;10739;52.198;20.908;2024-01-15T05:54:32;0.40;99.90
21163;DHT22;10739;52.198;20.908;2024-01-15T05:56:58;0.40;99.90
21163;DHT22;10739;52.198;20.908;2024-01-15T05:59:24;0.40;99.90
21163;DHT22;10739;52.198;20.908;2024-01-15T06:01:51;0.40;99.90
21163;DHT22;10739;52.198;20.908;2024-01-15T06:04:17;0.40;99.90
21163;DHT22;10739;52.198;20.908;2024-01-15T06:06:43;0.40;99.90
21163;DHT22;10739;52.198;20.908;2024-01-15T06:09:10;0.40;99.90
21163;DHT22;10739;52.198;20.908;2024-01-15T06:11:36;0.40;99.90
21163;DHT22;10739;52.198;20.908;2024-01-15T06:14:02;0.40;99.90
21163;DHT22;10739;52.198;20.908;2024-01-15T06:16:29;0.40;99.90
21163;DHT22;10739;52.198;20.908;2024-01-15T06:18:55;0.40;99.90
21163;DHT22;10739;52.198;20.908;2024-01-15T06:21:22;0.40;99.90
21163;DHT22;10739;52.198;20.908;2024-01-15T06:23:48;0.40;99.90
21163;DHT22;10739;52.198;20.908;2024-01-15T06:26:14;0.40;99.90
21163;DHT22;10739;52.198;20.908;2024-01-15T06:28:41;0.30;99.90
21163;DHT22;10739;52.198;20.908;2024-01-15T06:31:07;0.20;99.90
21163;DHT22;10739;52.198;20.908;2024-01-15T06:33:33;0.20;99.90
21163;DHT22;10739;52.198;20.908;2024-01-15T06:36:00;0.20;99.90
21163;DHT22;10739;52.198;20.908;2024-01-15T06:38:26;0.20;99.90
21163;DHT22;10739;52.198;20.908;2024-01-15T06:40:53;0.30;99.90
21163;DHT22;10739;52.198;20.908;2024-01-15T06:43:19;0.30;99.90
21163;DHT22;10739;52.198;20.908;2024-01-15T06:45:46;0.40;99.90
21163;DHT22;10739;52.198;20.908;2024-01-15T06:48:12;0.40;99.90
21163;DHT22;10739;52.198;20.908;2024-01-15T06:50:40;0.40;99.90
21163;DHT22;10739;52.198;20.908;2024-01-15T06:53:06;0.40;99.90
21163;DHT22;10739;52.198;20.908;2024-01-15T06:55:33;0.40;99.90
21163;DHT22;10739;52.198;20.908;2024-01-15T06:57:59;0.50;99.90
21163;DHT22;10739;52.198;20.908;2024-01-15T07:00:26;0.50;99.90
21163;DHT22;10739;52.198;20.908;2024-01-15T07:02:53;0.50;99.90
21163;DHT22;10739;52.198;20.908;2024-01-15T07:05:20;0.40;99.90
21163;DHT22;10739;52.198;20.908;2024-01-15T07:07:47;0.40;99.90
21163;DHT22;10739;52.198;20.908;2024-01-15T07:10:13;0.40;99.90
21163;DHT22;10739;52.198;20.908;2024-01-15T07:12:42;0.40;99.90
21163;DHT22;10739;52.198;20.908;2024-01-15T07:15:09;0.40;99.90
21163;DHT22;10739;52.198;20.908;2024-01-15T07:17:36;0.30;99.90
21163;DHT22;10739;52.198;20.908;2024-01-15T07:20:08;0.20;99.90
21163;DHT22;10739;52.198;20.908;2024-01-15T07:22:38;0.20;99.90
21163;DHT22;10739;52.198;20.908;2024-01-15T07:25:05;0.10;99.90
21163;DHT22;10739;52.198;20.908;2024-01-15T07:27:32;0.20;99.90
21163;DHT22;10739;52.198;20.908;2024-01-15T07:29:58;0.10;99.90
21163;DHT22;10739;52.198;20.908;2024-01-15T07:32:25;0.10;99.90
21163;DHT22;10739;52.198;20.908;2024-01-15T07:34:54;0.10;99.90
21163;DHT22;10739;52.198;20.908;2024-01-15T07:37:20;-0.30;99.90
21163;DHT22;10739;52.198;20.908;2024-01-15T07:39:46;0.10;99.90
21163;DHT22;10739;52.198;20.908;2024-01-15T07:42:13;0.10;99.90
21163;DHT22;10739;52.198;20.908;2024-01-15T07:44:40;0.10;99.90
21163;DHT22;10739;52.198;20.908;2024-01-15T07:47:06;0.20;99.90
21163;DHT22;10739;52.198;20.908;2024-01-15T07:49:34;0.20;99.90
21163;DHT22;10739;52.198;20.908;2024-01-15T07:52:01;0.20;99.90
21163;DHT22;10739;52.198;20.908;2024-01-15T07:54:28;0.30;99.90
21163;DHT22;10739;52.198;20.908;2024-01-15T07:56:56;0.30;99.90
21163;DHT22;10739;52.198;20.908;2024-01-15T07:59:24;0.30;99.90
21163;DHT22;10739;52.198;20.908;2024-01-15T08:01:51;0.30;99.90
21163;DHT22;10739;52.198;20.908;2024-01-15T08:04:19;0.30;99.90
21163;DHT22;10739;52.198;20.908;2024-01-15T08:06:46;0.20;99.90
21163;DHT22;10739;52.198;20.908;2024-01-15T08:09:12;0.20;99.90
21163;DHT22;10739;52.198;20.908;2024-01-15T08:11:45;0.20;99.90
21163;DHT22;10739;52.198;20.908;2024-01-15T08:14:12;0.20;99.90
21163;DHT22;10739;52.198;20.908;2024-01-15T08:16:39;0.20;99.90
21163;DHT22;10739;52.198;20.908;2024-01-15T08:19:06;0.30;99.90
21163;DHT22;10739;52.198;20.908;2024-01-15T08:21:33;0.30;99.90
21163;DHT22;10739;52.198;20.908;2024-01-15T08:24:01;0.40;99.90
21163;DHT22;10739;52.198;20.908;2024-01-15T08:26:30;0.40;99.90
21163;DHT22;10739;52.198;20.908;2024-01-15T08:28:58;0.50;99.90
21163;DHT22;10739;52.198;20.908;2024-01-15T08:31:25;0.60;99.90
21163;DHT22;10739;52.198;20.908;2024-01-15T08:33:51;0.60;99.90
21163;DHT22;10739;52.198;20.908;2024-01-15T08:36:21;0.70;99.90
21163;DHT22;10739;52.198;20.908;2024-01-15T08:38:50;0.70;99.90
21163;DHT22;10739;52.198;20.908;2024-01-15T08:41:18;0.70;99.90
21163;DHT22;10739;52.198;20.908;2024-01-15T08:43:44;0.60;99.90
21163;DHT22;10739;52.198;20.908;2024-01-15T08:46:10;0.60;99.90
21163;DHT22;10739;52.198;20.908;2024-01-15T08:48:37;0.50;99.90
21163;DHT22;10739;52.198;20.908;2024-01-15T08:51:03;0.40;99.90
21163;DHT22;10739;52.198;20.908;2024-01-15T08:53:30;0.30;99.90
21163;DHT22;10739;52.198;20.908;2024-01-15T08:55:56;0.20;99.90
21163;DHT22;10739;52.198;20.908;2024-01-15T08:58:24;0.20;99.90
21163;DHT22;10739;52.198;20.908;2024-01-15T09:00:51;0.30;99.90
21163;DHT22;10739;52.198;20.908;2024-01-15T09:03:17;0.30;99.90
21163;DHT22;10739;52.198;20.908;2024-01-15T09:05:43;0.30;99.90
21163;DHT22;10739;52.198;20.908;2024-01-15T09:08:10;0.40;99.90
21163;DHT22;10739;52.198;20.908;2024-01-15T09:10:36;0.40;99.90
21163;DHT22;10739;52.198;20.908;2024-01-15T09:13:02;0.50;99.90
21163;DHT22;10739;52.198;20.908;2024-01-15T09:15:30;0.60;99.90
21163;DHT22;10739;52.198;20.908;2024-01-15T09:17:56;0.70;99.90
21163;DHT22;10739;52.198;20.908;2024-01-15T09:20:24;0.90;99.90
21163;DHT22;10739;52.198;20.908;2024-01-15T09:22:53;1.00;99.90
21163;DHT22;10739;52.198;20.908;2024-01-15T09:25:20;1.00;99.90
21163;DHT22;10739;52.198;20.908;2024-01-15T09:27:46;1.10;99.90
21163;DHT22;10739;52.198;20.908;2024-01-15T09:30:13;1.10;99.90
21163;DHT22;10739;52.198;20.908;2024-01-15T09:32:39;1.10;99.90
21163;DHT22;10739;52.198;20.908;2024-01-15T09:35:06;1.10;99.90
21163;DHT22;10739;52.198;20.908;2024-01-15T09:37:40;1.00;99.90
21163;DHT22;10739;52.198;20.908;2024-01-15T09:40:12;0.90;99.90
21163;DHT22;10739;52.198;20.908;2024-01-15T09:42:41;1.00;99.90
21163;DHT22;10739;52.198;20.908;2024-01-15T09:45:08;1.10;99.90
21163;DHT22;10739;52.198;20.908;2024-01-15T09:47:36;1.20;99.90
21163;DHT22;10739;52.198;20.908;2024-01-15T09:50:04;1.10;99.90
21163;DHT22;10739;52.198;20.908;2024-01-15T09:52:31;1.20;99.90
21163;DHT22;10739;52.198;20.908;2024-01-15T09:55:03;1.20;99.90
21163;DHT22;10739;52.198;20.908;2024-01-15T09:57:31;1.20;99.90
21163;DHT22;10739;52.198;20.908;2024-01-15T10:00:00;1.10;99.90
21163;DHT22;10739;52.198;20.908;2024-01-15T10:02:30;1.10;99.90
21163;DHT22;10739;52.198;20.908;2024-01-15T10:04:57;1.10;99.90
21163;DHT22;10739;52.198;20.908;2024-01-15T10:07:23;1.10;99.90
21163;DHT22;10739;52.198;20.908;2024-01-15T10:09:51;1.20;99.90
21163;DHT22;10739;52.198;20.908;2024-01-15T10:12:17;1.20;99.90
21163;DHT22;10739;52.198;20.908;2024-01-15T10:14:44;1.20;99.90
21163;DHT22;10739;52.198;20.908;2024-01-15T10:17:14;1.20;99.90
21163;DHT22;10739;52.198;20.908;2024-01-15T10:19:41;1.20;99.90
21163;DHT22;10739;52.198;20.908;2024-01-15T10:22:09;1.20;99.90
21163;DHT22;10739;52.198;20.908;2024-01-15T10:24:40;1.20;99.90
21163;DHT22;10739;52.198;20.908;2024-01-15T10:27:10;1.20;99.90
21163;DHT22;10739;52.198;20.908;2024-01-15T10:29:37;1.20;99.90
21163;DHT22;10739;52.198;20.908;2024-01-15T10:32:07;1.20;99.90
21163;DHT22;10739;52.198;20.908;2024-01-15T10:34:38;1.10;99.90
21163;DHT22;10739;52.198;20.908;2024-01-15T10:37:07;1.10;99.90
21163;DHT22;10739;52.198;20.908;2024-01-15T10:39:35;1.20;99.90
21163;DHT22;10739;52.198;20.908;2024-01-15T10:42:03;1.30;99.90
21163;DHT22;10739;52.198;20.908;2024-01-15T10:44:30;1.30;99.90
21163;DHT22;10739;52.198;20.908;2024-01-15T10:46:57;1.30;99.90
21163;DHT22;10739;52.198;20.908;2024-01-15T10:49:24;2.30;99.90
21163;DHT22;10739;52.198;20.908;2024-01-15T10:51:53;1.40;99.90
21163;DHT22;10739;52.198;20.908;2024-01-15T10:54:19;1.40;99.90
21163;DHT22;10739;52.198;20.908;2024-01-15T10:56:50;1.40;99.90
21163;DHT22;10739;52.198;20.908;2024-01-15T10:59:20;1.30;99.90
21163;DHT22;10739;52.198;20.908;2024-01-15T11:01:55;1.40;99.90
21163;DHT22;10739;52.198;20.908;2024-01-15T11:04:37;1.40;99.90
21163;DHT22;10739;52.198;20.908;2024-01-15T11:07:05;1.40;99.90
21163;DHT22;10739;52.198;20.908;2024-01-15T11:09:32;1.40;99.90
21163;DHT22;10739;52.198;20.908;2024-01-15T11:12:10;1.40;99.90
21163;DHT22;10739;52.198;20.908;2024-01-15T11:14:45;1.40;99.90
21163;DHT22;10739;52.198;20.908;2024-01-15T11:17:17;1.40;99.90
21163;DHT22;10739;52.198;20.908;2024-01-15T11:19:50;1.40;99.90
21163;DHT22;10739;52.198;20.908;2024-01-15T11:24:55;1.50;99.90
21163;DHT22;10739;52.198;20.908;2024-01-15T11:27:45;1.40;99.90
21163;DHT22;10739;52.198;20.908;2024-01-15T11:30:19;1.50;99.90
21163;DHT22;10739;52.198;20.908;2024-01-15T11:32:46;1.50;99.90
21163;DHT22;10739;52.198;20.908;2024-01-15T11:35:13;1.50;99.90
21163;DHT22;10739;52.198;20.908;2024-01-15T11:40:44;1.30;99.90
21163;DHT22;10739;52.198;20.908;2024-01-15T11:43:12;1.30;99.90
21163;DHT22;10739;52.198;20.908;2024-01-15T11:45:41;1.30;99.90
21163;DHT22;10739;52.198;20.908;2024-01-15T11:48:11;1.30;99.90
21163;DHT22;10739;52.198;20.908;2024-01-15T11:50:42;1.20;99.90
21163;DHT22;10739;52.198;20.908;2024-01-15T11:53:33;1.10;99.90
21163;DHT22;10739;52.198;20.908;2024-01-15T11:56:03;1.00;99.90
21163;DHT22;10739;52.198;20.908;2024-01-15T11:58:36;1.00;99.90
21163;DHT22;10739;52.198;20.908;2024-01-15T12:01:03;1.10;99.90
21163;DHT22;10739;52.198;20.908;2024-01-15T12:03:32;1.20;99.90
21163;DHT22;10739;52.198;20.908;2024-01-15T12:06:04;1.10;99.90
21163;DHT22;10739;52.198;20.908;2024-01-15T12:08:31;1.10;99.90
21163;DHT22;10739;52.198;20.908;2024-01-15T12:10:57;1.00;99.90
21163;DHT22;10739;52.198;20.908;2024-01-15T12:13:24;1.00;99.90
21163;DHT22;10739;52.198;20.908;2024-01-15T12:15:50;1.00;99.90
21163;DHT22;10739;52.198;20.908;2024-01-15T12:18:18;1.00;99.90
21163;DHT22;10739;52.198;20.908;2024-01-15T12:20:45;0.90;99.90
21163;DHT22;10739;52.198;20.908;2024-01-15T12:23:15;0.90;99.90
21163;DHT22;10739;52.198;20.908;2024-01-15T12:25:42;0.80;99.90
21163;DHT22;10739;52.198;20.908;2024-01-15T12:28:09;0.80;99.90
21163;DHT22;10739;52.198;20.908;2024-01-15T12:30:35;0.70;99.90
21163;DHT22;10739;52.198;20.908;2024-01-15T12:33:03;0.70;99.90
21163;DHT22;10739;52.198;20.908;2024-01-15T12:35:31;0.50;99.90
21163;DHT22;10739;52.198;20.908;2024-01-15T12:37:59;0.40;99.90
21163;DHT22;10739;52.198;20.908;2024-01-15T12:40:27;0.20;99.90
21163;DHT22;10739;52.198;20.908;2024-01-15T12:42:55;0.10;99.90
21163;DHT22;10739;52.198;20.908;2024-01-15T12:45:21;0.10;99.90
21163;DHT22;10739;52.198;20.908;2024-01-15T12:47:48;0.20;99.90
21163;DHT22;10739;52.198;20.908;2024-01-15T12:50:16;0.30;99.90
21163;DHT22;10739;52.198;20.908;2024-01-15T12:52:42;0.40;99.90
21163;DHT22;10739;52.198;20.908;2024-01-15T12:55:10;0.50;99.90
21163;DHT22;10739;52.198;20.908;2024-01-15T12:57:37;0.50;99.90
21163;DHT22;10739;52.198;20.908;2024-01-15T13:00:04;0.60;99.90
21163;DHT22;10739;52.198;20.908;2024-01-15T13:02:38;0.60;99.90
21163;DHT22;10739;52.198;20.908;2024-01-15T13:05:12;0.60;99.90
21163;DHT22;10739;52.198;20.908;2024-01-15T13:07:38;0.30;99.90
21163;DHT22;10739;52.198;20.908;2024-01-15T13:10:05;0.00;99.90
21163;DHT22;10739;52.198;20.908;2024-01-15T13:12:34;0.00;99.90
21163;DHT22;10739;52.198;20.908;2024-01-15T13:15:00;-0.10;99.90
21163;DHT22;10739;52.198;20.908;2024-01-15T13:17:29;-0.10;99.90
21163;DHT22;10739;52.198;20.908;2024-01-15T13:19:55;-0.10;99.90
21163;DHT22;10739;52.198;20.908;2024-01-15T13:22:24;-0.10;99.90
21163;DHT22;10739;52.198;20.908;2024-01-15T13:24:57;0.00;99.90
21163;DHT22;10739;52.198;20.908;2024-01-15T13:27:24;0.00;99.90
21163;DHT22;10739;52.198;20.908;2024-01-15T13:29:50;0.00;99.90
21163;DHT22;10739;52.198;20.908;2024-01-15T13:32:24;0.00;99.90
21163;DHT22;10739;52.198;20.908;2024-01-15T13:34:52;0.10;99.90
21163;DHT22;10739;52.198;20.908;2024-01-15T13:37:18;0.10;99.90
21163;DHT22;10739;52.198;20.908;2024-01-15T13:39:44;0.20;99.90
21163;DHT22;10739;52.198;20.908;2024-01-15T13:42:10;0.20;99.90
21163;DHT22;10739;52.198;20.908;2024-01-15T13:44:37;0.30;99.90
21163;DHT22;10739;52.198;20.908;2024-01-15T13:47:04;0.30;99.90
21163;DHT22;10739;52.198;20.908;2024-01-15T13:49:31;0.30;99.90
21163;DHT22;10739;52.198;20.908;2024-01-15T13:51:59;0.30;99.90
21163;DHT22;10739;52.198;20.908;2024-01-15T13:54:25;0.30;99.90
21163;DHT22;10739;52.198;20.908;2024-01-15T13:56:52;0.30;99.90
21163;DHT22;10739;52.198;20.908;2024-01-15T13:59:19;0.30;99.90
21163;DHT22;10739;52.198;20.908;2024-01-15T14:01:45;0.30;99.90
21163;DHT22;10739;52.198;20.908;2024-01-15T14:04:13;0.30;99.90
21163;DHT22;10739;52.198;20.908;2024-01-15T14:06:40;0.30;99.90
21163;DHT22;10739;52.198;20.908;2024-01-15T14:09:07;0.30;99.90
21163;DHT22;10739;52.198;20.908;2024-01-15T14:11:36;0.30;99.90
21163;DHT22;10739;52.198;20.908;2024-01-15T14:14:03;0.30;99.90
21163;DHT22;10739;52.198;20.908;2024-01-15T14:16:29;0.30;99.90
21163;DHT22;10739;52.198;20.908;2024-01-15T14:18:56;0.30;99.90
21163;DHT22;10739;52.198;20.908;2024-01-15T14:21:22;0.30;99.90
21163;DHT22;10739;52.198;20.908;2024-01-15T14:23:49;0.30;99.90
21163;DHT22;10739;52.198;20.908;2024-01-15T14:26:15;0.30;99.90
21163;DHT22;10739;52.198;20.908;2024-01-15T14:28:42;0.30;99.90
21163;DHT22;10739;52.198;20.908;2024-01-15T14:31:08;0.30;99.90
21163;DHT22;10739;52.198;20.908;2024-01-15T14:33:35;0.30;99.90
21163;DHT22;10739;52.198;20.908;2024-01-15T14:36:02;0.30;99.90
21163;DHT22;10739;52.198;20.908;2024-01-15T14:38:28;0.30;99.90
21163;DHT22;10739;52.198;20.908;2024-01-15T14:40:54;0.30;99.90
21163;DHT22;10739;52.198;20.908;2024-01-15T14:43:21;0.30;99.90
21163;DHT22;10739;52.198;20.908;2024-01-15T14:45:47;0.30;99.90
21163;DHT22;10739;52.198;20.908;2024-01-15T14:48:14;0.30;99.90
21163;DHT22;10739;52.198;20.908;2024-01-15T14:50:40;0.30;99.90
21163;DHT22;10739;52.198;20.908;2024-01-15T14:53:06;0.30;99.90
21163;DHT22;10739;52.198;20.908;2024-01-15T14:55:33;0.20;99.90
21163;DHT22;10739;52.198;20.908;2024-01-15T14:57:59;0.20;99.90
21163;DHT22;10739;52.198;20.908;2024-01-15T15:00:25;0.20;99.90
21163;DHT22;10739;52.198;20.908;2024-01-15T15:02:52;0.20;99.90
21163;DHT22;10739;52.198;20.908;2024-01-15T15:05:18;0.20;99.90
21163;DHT22;10739;52.198;20.908;2024-01-15T15:07:46;0.30;99.90
21163;DHT22;10739;52.198;20.908;2024-01-15T15:10:12;0.30;99.90
21163;DHT22;10739;52.198;20.908;2024-01-15T15:12:38;0.30;99.90
21163;DHT22;10739;52.198;20.908;2024-01-15T15:15:05;0.30;99.90
21163;DHT22;10739;52.198;20.908;2024-01-15T15:17:33;0.40;99.90
21163;DHT22;10739;52.198;20.908;2024-01-15T15:20:00;0.40;99.90
21163;DHT22;10739;52.198;20.908;2024-01-15T15:22:28;0.40;99.90
21163;DHT22;10739;52.198;20.908;2024-01-15T15:24:55;0.40;99.90
21163;DHT22;10739;52.198;20.908;2024-01-15T15:27:21;0.40;99.90
21163;DHT22;10739;52.198;20.908;2024-01-15T15:29:47;0.40;99.90
21163;DHT22;10739;52.198;20.908;2024-01-15T15:32:16;0.40;99.90
21163;DHT22;10739;52.198;20.908;2024-01-15T15:34:42;0.40;99.90
21163;DHT22;10739;52.198;20.908;2024-01-15T15:37:08;0.50;99.90